sensor_id;sensor_type;location;lat;lon;timestamp;P1;durP1;ratioP1;P2;durP2;ratioP2
43801;SDS011;29429;51.074;13.764;2023-12-07T00:00:26;19.75;;;12.82;;
43801;SDS011;29429;51.074;13.764;2023-12-07T00:02:53;16.80;;;12.25;;
43801;SDS011;29429;51.074;13.764;2023-12-07T00:05:20;17.73;;;12.43;;
43801;SDS011;29429;51.074;13.764;2023-12-07T00:07:47;18.05;;;12.57;;
43801;SDS011;29429;51.074;13.764;2023-12-07T00:10:14;18.55;;;11.77;;
43801;SDS011;29429;51.074;13.764;2023-12-07T00:12:41;17.65;;;12.90;;
43801;SDS011;29429;51.074;13.764;2023-12-07T00:15:08;18.20;;;11.95;;
43801;SDS011;29429;51.074;13.764;2023-12-07T00:17:36;17.50;;;11.00;;
43801;SDS011;29429;51.074;13.764;2023-12-07T00:20:03;19.38;;;12.75;;
43801;SDS011;29429;51.074;13.764;2023-12-07T00:22:30;19.00;;;12.27;;
43801;SDS011;29429;51.074;13.764;2023-12-07T00:24:57;18.25;;;12.55;;
43801;SDS011;29429;51.074;13.764;2023-12-07T00:27:24;15.27;;;10.85;;
43801;SDS011;29429;51.074;13.764;2023-12-07T00:29:51;17.83;;;11.82;;
43801;SDS011;29429;51.074;13.764;2023-12-07T00:32:18;16.60;;;11.30;;
43801;SDS011;29429;51.074;13.764;2023-12-07T00:34:45;19.42;;;13.32;;
43801;SDS011;29429;51.074;13.764;2023-12-07T00:37:12;18.58;;;11.93;;
43801;SDS011;29429;51.074;13.764;2023-12-07T00:39:41;16.45;;;11.50;;
43801;SDS011;29429;51.074;13.764;2023-12-07T00:42:08;19.15;;;12.60;;
43801;SDS011;29429;51.074;13.764;2023-12-07T00:44:38;17.15;;;11.40;;
43801;SDS011;29429;51.074;13.764;2023-12-07T00:47:06;18.98;;;13.00;;
43801;SDS011;29429;51.074;13.764;2023-12-07T00:49:37;21.33;;;14.00;;
43801;SDS011;29429;51.074;13.764;2023-12-07T00:52:06;19.95;;;13.40;;
43801;SDS011;29429;51.074;13.764;2023-12-07T00:54:33;18.13;;;12.50;;
43801;SDS011;29429;51.074;13.764;2023-12-07T00:57:00;18.17;;;12.20;;
43801;SDS011;29429;51.074;13.764;2023-12-07T00:59:27;19.00;;;12.45;;
43801;SDS011;29429;51.074;13.764;2023-12-07T01:01:54;16.80;;;11.65;;
43801;SDS011;29429;51.074;13.764;2023-12-07T01:04:21;17.15;;;11.98;;
43801;SDS011;29429;51.074;13.764;2023-12-07T01:06:48;14.20;;;10.38;;
43801;SDS011;29429;51.074;13.764;2023-12-07T01:09:15;18.52;;;12.05;;
43801;SDS011;29429;51.074;13.764;2023-12-07T01:11:42;17.02;;;10.73;;
43801;SDS011;29429;51.074;13.764;2023-12-07T01:14:09;14.20;;;10.48;;
43801;SDS011;29429;51.074;13.764;2023-12-07T01:16:37;17.65;;;12.10;;
43801;SDS011;29429;51.074;13.764;2023-12-07T01:19:04;16.33;;;11.43;;
43801;SDS011;29429;51.074;13.764;2023-12-07T01:21:33;17.05;;;11.15;;
43801;SDS011;29429;51.074;13.764;2023-12-07T01:24:00;17.52;;;11.23;;
43801;SDS011;29429;51.074;13.764;2023-12-07T01:26:40;14.80;;;10.32;;
43801;SDS011;29429;51.074;13.764;2023-12-07T01:29:07;17.75;;;11.98;;
43801;SDS011;29429;51.074;13.764;2023-12-07T01:31:34;15.32;;;9.88;;
43801;SDS011;29429;51.074;13.764;2023-12-07T01:34:01;17.20;;;11.82;;
43801;SDS011;29429;51.074;13.764;2023-12-07T01:36:28;15.63;;;10.70;;
43801;SDS011;29429;51.074;13.764;2023-12-07T01:38:55;16.85;;;11.48;;
43801;SDS011;29429;51.074;13.764;2023-12-07T01:41:22;17.77;;;12.05;;
43801;SDS011;29429;51.074;13.764;2023-12-07T01:43:49;18.10;;;12.70;;
43801;SDS011;29429;51.074;13.764;2023-12-07T01:46:17;20.38;;;13.05;;
43801;SDS011;29429;51.074;13.764;2023-12-07T01:48:44;16.58;;;11.27;;
43801;SDS011;29429;51.074;13.764;2023-12-07T01:51:16;16.42;;;11.07;;
43801;SDS011;29429;51.074;13.764;2023-12-07T01:53:45;15.18;;;10.68;;
43801;SDS011;29429;51.074;13.764;2023-12-07T01:56:14;18.13;;;11.77;;
43801;SDS011;29429;51.074;13.764;2023-12-07T01:58:42;17.85;;;11.52;;
43801;SDS011;29429;51.074;13.764;2023-12-07T02:01:10;15.85;;;11.18;;
43801;SDS011;29429;51.074;13.764;2023-12-07T02:03:41;17.30;;;11.95;;
43801;SDS011;29429;51.074;13.764;2023-12-07T02:06:09;19.02;;;12.80;;
43801;SDS011;29429;51.074;13.764;2023-12-07T02:08:36;16.33;;;11.23;;
43801;SDS011;29429;51.074;13.764;2023-12-07T02:11:08;17.30;;;12.13;;
43801;SDS011;29429;51.074;13.764;2023-12-07T02:13:36;17.85;;;12.55;;
43801;SDS011;29429;51.074;13.764;2023-12-07T02:16:07;15.95;;;10.88;;
43801;SDS011;29429;51.074;13.764;2023-12-07T02:18:45;15.20;;;10.85;;
43801;SDS011;29429;51.074;13.764;2023-12-07T02:21:47;14.98;;;10.13;;
43801;SDS011;29429;51.074;13.764;2023-12-07T02:24:22;16.05;;;10.63;;
43801;SDS011;29429;51.074;13.764;2023-12-07T02:26:55;19.48;;;12.18;;
43801;SDS011;29429;51.074;13.764;2023-12-07T02:29:21;18.33;;;12.38;;
43801;SDS011;29429;51.074;13.764;2023-12-07T02:31:48;18.48;;;12.57;;
43801;SDS011;29429;51.074;13.764;2023-12-07T02:34:16;20.00;;;13.00;;
43801;SDS011;29429;51.074;13.764;2023-12-07T02:36:43;18.58;;;12.57;;
43801;SDS011;29429;51.074;13.764;2023-12-07T02:39:14;19.25;;;12.80;;
43801;SDS011;29429;51.074;13.764;2023-12-07T02:41:43;18.30;;;12.38;;
43801;SDS011;29429;51.074;13.764;2023-12-07T02:44:13;16.08;;;10.98;;
43801;SDS011;29429;51.074;13.764;2023-12-07T02:46:41;19.52;;;12.63;;
43801;SDS011;29429;51.074;13.764;2023-12-07T02:49:08;21.00;;;13.57;;
43801;SDS011;29429;51.074;13.764;2023-12-07T02:51:36;19.02;;;12.90;;
43801;SDS011;29429;51.074;13.764;2023-12-07T02:54:03;17.63;;;11.00;;
43801;SDS011;29429;51.074;13.764;2023-12-07T02:56:30;17.95;;;10.95;;
43801;SDS011;29429;51.074;13.764;2023-12-07T02:58:56;20.80;;;13.13;;
43801;SDS011;29429;51.074;13.764;2023-12-07T03:01:23;16.75;;;11.13;;
43801;SDS011;29429;51.074;13.764;2023-12-07T03:03:50;17.40;;;11.70;;
43801;SDS011;29429;51.074;13.764;2023-12-07T03:06:18;16.25;;;11.45;;
43801;SDS011;29429;51.074;13.764;2023-12-07T03:08:46;16.38;;;10.60;;
43801;SDS011;29429;51.074;13.764;2023-12-07T03:11:12;19.08;;;13.73;;
43801;SDS011;29429;51.074;13.764;2023-12-07T03:13:39;22.08;;;13.32;;
43801;SDS011;29429;51.074;13.764;2023-12-07T03:16:07;21.88;;;13.55;;
43801;SDS011;29429;51.074;13.764;2023-12-07T03:18:36;21.95;;;12.10;;
43801;SDS011;29429;51.074;13.764;2023-12-07T03:21:03;18.05;;;12.25;;
43801;SDS011;29429;51.074;13.764;2023-12-07T03:23:31;19.85;;;12.30;;
43801;SDS011;29429;51.074;13.764;2023-12-07T03:25:58;20.90;;;12.65;;
43801;SDS011;29429;51.074;13.764;2023-12-07T03:28:25;17.95;;;12.05;;
43801;SDS011;29429;51.074;13.764;2023-12-07T03:30:52;19.83;;;13.35;;
43801;SDS011;29429;51.074;13.764;2023-12-07T03:33:19;18.67;;;11.57;;
43801;SDS011;29429;51.074;13.764;2023-12-07T03:35:46;18.08;;;12.05;;
43801;SDS011;29429;51.074;13.764;2023-12-07T03:38:12;19.17;;;12.23;;
43801;SDS011;29429;51.074;13.764;2023-12-07T03:40:40;16.70;;;11.98;;
43801;SDS011;29429;51.074;13.764;2023-12-07T03:43:08;18.52;;;12.93;;
43801;SDS011;29429;51.074;13.764;2023-12-07T03:45:35;21.55;;;14.43;;
43801;SDS011;29429;51.074;13.764;2023-12-07T03:48:01;18.05;;;12.05;;
43801;SDS011;29429;51.074;13.764;2023-12-07T03:50:30;21.80;;;14.25;;
43801;SDS011;29429;51.074;13.764;2023-12-07T03:52:57;19.20;;;12.25;;
43801;SDS011;29429;51.074;13.764;2023-12-07T03:55:24;19.60;;;11.13;;
43801;SDS011;29429;51.074;13.764;2023-12-07T03:57:51;24.02;;;13.90;;
43801;SDS011;29429;51.074;13.764;2023-12-07T04:00:18;19.05;;;12.63;;
43801;SDS011;29429;51.074;13.764;2023-12-07T04:02:45;22.55;;;13.80;;
43801;SDS011;29429;51.074;13.764;2023-12-07T04:05:12;18.88;;;12.18;;
43801;SDS011;29429;51.074;13.764;2023-12-07T04:07:40;17.70;;;11.68;;
43801;SDS011;29429;51.074;13.764;2023-12-07T04:10:08;18.02;;;11.75;;
43801;SDS011;29429;51.074;13.764;2023-12-07T04:12:35;16.25;;;10.75;;
43801;SDS011;29429;51.074;13.764;2023-12-07T04:15:02;18.27;;;12.18;;
43801;SDS011;29429;51.074;13.764;2023-12-07T04:17:30;17.40;;;11.88;;
43801;SDS011;29429;51.074;13.764;2023-12-07T04:19:57;20.17;;;13.77;;
43801;SDS011;29429;51.074;13.764;2023-12-07T04:22:24;23.73;;;14.70;;
43801;SDS011;29429;51.074;13.764;2023-12-07T04:24:51;19.17;;;12.65;;
43801;SDS011;29429;51.074;13.764;2023-12-07T04:27:18;20.42;;;12.32;;
43801;SDS011;29429;51.074;13.764;2023-12-07T04:29:45;15.23;;;10.50;;
43801;SDS011;29429;51.074;13.764;2023-12-07T04:32:12;19.05;;;12.20;;
43801;SDS011;29429;51.074;13.764;2023-12-07T04:34:40;18.92;;;12.70;;
43801;SDS011;29429;51.074;13.764;2023-12-07T04:37:07;21.67;;;12.80;;
43801;SDS011;29429;51.074;13.764;2023-12-07T04:39:35;20.23;;;13.10;;
43801;SDS011;29429;51.074;13.764;2023-12-07T04:42:02;22.95;;;13.32;;
43801;SDS011;29429;51.074;13.764;2023-12-07T04:44:30;20.85;;;14.65;;
43801;SDS011;29429;51.074;13.764;2023-12-07T04:46:57;20.55;;;13.48;;
43801;SDS011;29429;51.074;13.764;2023-12-07T04:49:24;23.60;;;14.48;;
43801;SDS011;29429;51.074;13.764;2023-12-07T04:51:51;20.83;;;13.63;;
43801;SDS011;29429;51.074;13.764;2023-12-07T04:54:18;22.33;;;14.15;;
43801;SDS011;29429;51.074;13.764;2023-12-07T04:56:45;21.05;;;14.45;;
43801;SDS011;29429;51.074;13.764;2023-12-07T04:59:13;20.45;;;13.00;;
43801;SDS011;29429;51.074;13.764;2023-12-07T05:01:40;19.23;;;12.70;;
43801;SDS011;29429;51.074;13.764;2023-12-07T05:04:07;25.95;;;15.15;;
43801;SDS011;29429;51.074;13.764;2023-12-07T05:06:34;24.35;;;15.60;;
43801;SDS011;29429;51.074;13.764;2023-12-07T05:09:01;21.92;;;13.85;;
43801;SDS011;29429;51.074;13.764;2023-12-07T05:11:29;21.60;;;13.55;;
43801;SDS011;29429;51.074;13.764;2023-12-07T05:13:56;23.55;;;14.00;;
43801;SDS011;29429;51.074;13.764;2023-12-07T05:16:24;20.30;;;13.30;;
43801;SDS011;29429;51.074;13.764;2023-12-07T05:18:51;23.15;;;14.15;;
43801;SDS011;29429;51.074;13.764;2023-12-07T05:21:18;21.45;;;13.95;;
43801;SDS011;29429;51.074;13.764;2023-12-07T05:23:45;24.23;;;13.50;;
43801;SDS011;29429;51.074;13.764;2023-12-07T05:26:12;22.30;;;14.30;;
43801;SDS011;29429;51.074;13.764;2023-12-07T05:28:39;28.13;;;15.23;;
43801;SDS011;29429;51.074;13.764;2023-12-07T05:31:06;19.83;;;13.18;;
43801;SDS011;29429;51.074;13.764;2023-12-07T05:33:33;22.48;;;13.55;;
43801;SDS011;29429;51.074;13.764;2023-12-07T05:36:00;24.75;;;14.55;;
43801;SDS011;29429;51.074;13.764;2023-12-07T05:38:29;20.60;;;13.10;;
43801;SDS011;29429;51.074;13.764;2023-12-07T05:40:56;22.48;;;14.55;;
43801;SDS011;29429;51.074;13.764;2023-12-07T05:43:23;22.50;;;14.82;;
43801;SDS011;29429;51.074;13.764;2023-12-07T05:45:50;21.40;;;14.15;;
43801;SDS011;29429;51.074;13.764;2023-12-07T05:48:17;23.95;;;14.48;;
43801;SDS011;29429;51.074;13.764;2023-12-07T05:50:44;23.90;;;14.75;;
43801;SDS011;29429;51.074;13.764;2023-12-07T05:53:11;26.52;;;15.90;;
43801;SDS011;29429;51.074;13.764;2023-12-07T05:55:38;23.80;;;15.02;;
43801;SDS011;29429;51.074;13.764;2023-12-07T05:58:06;22.83;;;14.35;;
43801;SDS011;29429;51.074;13.764;2023-12-07T06:00:33;23.75;;;16.15;;
43801;SDS011;29429;51.074;13.764;2023-12-07T06:03:00;26.42;;;15.90;;
43801;SDS011;29429;51.074;13.764;2023-12-07T06:05:27;23.38;;;13.85;;
43801;SDS011;29429;51.074;13.764;2023-12-07T06:07:54;19.00;;;12.65;;
43801;SDS011;29429;51.074;13.764;2023-12-07T06:10:21;21.67;;;13.90;;
43801;SDS011;29429;51.074;13.764;2023-12-07T06:15:41;22.48;;;14.00;;
43801;SDS011;29429;51.074;13.764;2023-12-07T06:18:08;19.95;;;12.30;;
43801;SDS011;29429;51.074;13.764;2023-12-07T06:20:35;17.30;;;11.80;;
43801;SDS011;29429;51.074;13.764;2023-12-07T06:23:02;27.15;;;15.30;;
43801;SDS011;29429;51.074;13.764;2023-12-07T06:25:30;23.55;;;15.00;;
43801;SDS011;29429;51.074;13.764;2023-12-07T06:27:57;21.30;;;13.88;;
43801;SDS011;29429;51.074;13.764;2023-12-07T06:30:24;26.30;;;15.90;;
43801;SDS011;29429;51.074;13.764;2023-12-07T06:32:51;23.08;;;14.68;;
43801;SDS011;29429;51.074;13.764;2023-12-07T06:35:18;26.27;;;16.48;;
43801;SDS011;29429;51.074;13.764;2023-12-07T06:37:45;21.33;;;14.23;;
43801;SDS011;29429;51.074;13.764;2023-12-07T06:40:12;25.77;;;15.32;;
43801;SDS011;29429;51.074;13.764;2023-12-07T06:42:40;22.05;;;14.60;;
43801;SDS011;29429;51.074;13.764;2023-12-07T06:45:07;24.17;;;15.45;;
43801;SDS011;29429;51.074;13.764;2023-12-07T06:47:37;27.75;;;17.50;;
43801;SDS011;29429;51.074;13.764;2023-12-07T06:50:05;24.55;;;14.65;;
43801;SDS011;29429;51.074;13.764;2023-12-07T06:52:36;24.35;;;14.90;;
43801;SDS011;29429;51.074;13.764;2023-12-07T06:55:04;19.77;;;12.82;;
43801;SDS011;29429;51.074;13.764;2023-12-07T06:57:33;20.80;;;14.07;;
43801;SDS011;29429;51.074;13.764;2023-12-07T07:00:00;26.17;;;15.85;;
43801;SDS011;29429;51.074;13.764;2023-12-07T07:02:28;25.80;;;16.42;;
43801;SDS011;29429;51.074;13.764;2023-12-07T07:04:54;25.85;;;16.17;;
43801;SDS011;29429;51.074;13.764;2023-12-07T07:07:21;25.67;;;16.10;;
43801;SDS011;29429;51.074;13.764;2023-12-07T07:09:49;26.98;;;16.10;;
43801;SDS011;29429;51.074;13.764;2023-12-07T07:12:16;21.38;;;13.50;;
43801;SDS011;29429;51.074;13.764;2023-12-07T07:14:43;24.20;;;15.38;;
43801;SDS011;29429;51.074;13.764;2023-12-07T07:17:10;23.08;;;14.90;;
43801;SDS011;29429;51.074;13.764;2023-12-07T07:19:37;28.45;;;16.88;;
43801;SDS011;29429;51.074;13.764;2023-12-07T07:22:04;26.23;;;16.15;;
43801;SDS011;29429;51.074;13.764;2023-12-07T07:24:31;22.40;;;15.52;;
43801;SDS011;29429;51.074;13.764;2023-12-07T07:26:58;27.40;;;15.85;;
43801;SDS011;29429;51.074;13.764;2023-12-07T07:29:25;22.48;;;15.10;;
43801;SDS011;29429;51.074;13.764;2023-12-07T07:31:55;25.85;;;15.90;;
43801;SDS011;29429;51.074;13.764;2023-12-07T07:34:22;27.60;;;17.23;;
43801;SDS011;29429;51.074;13.764;2023-12-07T07:36:49;23.20;;;15.35;;
43801;SDS011;29429;51.074;13.764;2023-12-07T07:39:16;24.15;;;14.50;;
43801;SDS011;29429;51.074;13.764;2023-12-07T07:41:43;25.30;;;16.23;;
43801;SDS011;29429;51.074;13.764;2023-12-07T07:44:10;27.58;;;16.90;;
43801;SDS011;29429;51.074;13.764;2023-12-07T07:46:37;30.23;;;18.27;;
43801;SDS011;29429;51.074;13.764;2023-12-07T07:49:06;191.75;;;93.78;;
43801;SDS011;29429;51.074;13.764;2023-12-07T07:51:34;114.80;;;57.95;;
43801;SDS011;29429;51.074;13.764;2023-12-07T07:54:01;48.92;;;33.25;;
43801;SDS011;29429;51.074;13.764;2023-12-07T07:56:28;44.55;;;26.95;;
43801;SDS011;29429;51.074;13.764;2023-12-07T07:58:55;34.50;;;20.77;;
43801;SDS011;29429;51.074;13.764;2023-12-07T08:01:21;31.45;;;19.73;;
43801;SDS011;29429;51.074;13.764;2023-12-07T08:03:48;34.67;;;22.95;;
43801;SDS011;29429;51.074;13.764;2023-12-07T08:06:15;29.05;;;19.52;;
43801;SDS011;29429;51.074;13.764;2023-12-07T08:08:42;25.33;;;16.40;;
43801;SDS011;29429;51.074;13.764;2023-12-07T08:11:09;26.27;;;17.25;;
43801;SDS011;29429;51.074;13.764;2023-12-07T08:13:36;25.25;;;16.20;;
43801;SDS011;29429;51.074;13.764;2023-12-07T08:16:07;26.58;;;16.55;;
43801;SDS011;29429;51.074;13.764;2023-12-07T08:18:35;25.80;;;17.75;;
43801;SDS011;29429;51.074;13.764;2023-12-07T08:21:02;25.98;;;16.02;;
43801;SDS011;29429;51.074;13.764;2023-12-07T08:23:30;26.52;;;16.60;;
43801;SDS011;29429;51.074;13.764;2023-12-07T08:25:57;26.80;;;16.55;;
43801;SDS011;29429;51.074;13.764;2023-12-07T08:28:24;24.83;;;16.35;;
43801;SDS011;29429;51.074;13.764;2023-12-07T08:30:51;21.80;;;15.13;;
43801;SDS011;29429;51.074;13.764;2023-12-07T08:33:18;22.17;;;14.57;;
43801;SDS011;29429;51.074;13.764;2023-12-07T08:35:45;26.52;;;17.17;;
43801;SDS011;29429;51.074;13.764;2023-12-07T08:38:12;33.58;;;20.02;;
43801;SDS011;29429;51.074;13.764;2023-12-07T08:40:39;30.90;;;17.75;;
43801;SDS011;29429;51.074;13.764;2023-12-07T08:43:06;26.63;;;16.27;;
43801;SDS011;29429;51.074;13.764;2023-12-07T08:45:33;32.33;;;19.80;;
43801;SDS011;29429;51.074;13.764;2023-12-07T08:48:04;28.23;;;17.70;;
43801;SDS011;29429;51.074;13.764;2023-12-07T08:50:31;26.52;;;17.10;;
43801;SDS011;29429;51.074;13.764;2023-12-07T08:52:58;28.80;;;17.08;;
43801;SDS011;29429;51.074;13.764;2023-12-07T08:55:30;27.67;;;17.25;;
43801;SDS011;29429;51.074;13.764;2023-12-07T08:57:58;26.25;;;16.40;;
43801;SDS011;29429;51.074;13.764;2023-12-07T09:00:25;26.92;;;16.98;;
43801;SDS011;29429;51.074;13.764;2023-12-07T09:02:52;28.33;;;17.60;;
43801;SDS011;29429;51.074;13.764;2023-12-07T09:05:20;28.88;;;17.33;;
43801;SDS011;29429;51.074;13.764;2023-12-07T09:07:47;27.70;;;16.67;;
43801;SDS011;29429;51.074;13.764;2023-12-07T09:10:14;22.17;;;14.95;;
43801;SDS011;29429;51.074;13.764;2023-12-07T09:12:41;26.77;;;17.27;;
43801;SDS011;29429;51.074;13.764;2023-12-07T09:15:08;29.80;;;17.83;;
43801;SDS011;29429;51.074;13.764;2023-12-07T09:17:40;26.00;;;16.83;;
43801;SDS011;29429;51.074;13.764;2023-12-07T09:20:08;29.65;;;17.98;;
43801;SDS011;29429;51.074;13.764;2023-12-07T09:22:44;26.50;;;17.15;;
43801;SDS011;29429;51.074;13.764;2023-12-07T09:25:13;29.33;;;18.75;;
43801;SDS011;29429;51.074;13.764;2023-12-07T09:27:43;24.35;;;16.00;;
43801;SDS011;29429;51.074;13.764;2023-12-07T09:30:10;24.83;;;14.90;;
43801;SDS011;29429;51.074;13.764;2023-12-07T09:32:39;23.98;;;16.35;;
43801;SDS011;29429;51.074;13.764;2023-12-07T09:35:10;25.38;;;16.98;;
43801;SDS011;29429;51.074;13.764;2023-12-07T09:37:50;26.75;;;17.55;;
43801;SDS011;29429;51.074;13.764;2023-12-07T09:40:18;26.67;;;18.35;;
43801;SDS011;29429;51.074;13.764;2023-12-07T09:42:48;28.75;;;18.20;;
43801;SDS011;29429;51.074;13.764;2023-12-07T09:45:17;24.70;;;16.58;;
43801;SDS011;29429;51.074;13.764;2023-12-07T09:47:49;28.05;;;18.17;;
43801;SDS011;29429;51.074;13.764;2023-12-07T09:50:19;24.65;;;17.80;;
43801;SDS011;29429;51.074;13.764;2023-12-07T09:52:49;28.77;;;17.08;;
43801;SDS011;29429;51.074;13.764;2023-12-07T09:55:33;26.00;;;17.73;;
43801;SDS011;29429;51.074;13.764;2023-12-07T09:58:03;26.00;;;18.35;;
43801;SDS011;29429;51.074;13.764;2023-12-07T10:00:32;27.50;;;18.30;;
43801;SDS011;29429;51.074;13.764;2023-12-07T10:02:59;28.25;;;19.00;;
43801;SDS011;29429;51.074;13.764;2023-12-07T10:05:26;27.48;;;17.58;;
43801;SDS011;29429;51.074;13.764;2023-12-07T10:07:54;29.13;;;17.02;;
43801;SDS011;29429;51.074;13.764;2023-12-07T10:10:21;25.88;;;16.30;;
43801;SDS011;29429;51.074;13.764;2023-12-07T10:12:52;26.38;;;16.77;;
43801;SDS011;29429;51.074;13.764;2023-12-07T10:15:21;27.08;;;17.45;;
43801;SDS011;29429;51.074;13.764;2023-12-07T10:17:50;23.00;;;15.25;;
43801;SDS011;29429;51.074;13.764;2023-12-07T10:20:24;22.90;;;15.65;;
43801;SDS011;29429;51.074;13.764;2023-12-07T10:23:03;25.75;;;16.77;;
43801;SDS011;29429;51.074;13.764;2023-12-07T10:25:37;30.00;;;17.30;;
43801;SDS011;29429;51.074;13.764;2023-12-07T10:28:08;31.33;;;18.40;;
43801;SDS011;29429;51.074;13.764;2023-12-07T10:30:39;28.75;;;17.50;;
43801;SDS011;29429;51.074;13.764;2023-12-07T10:33:09;28.00;;;18.10;;
43801;SDS011;29429;51.074;13.764;2023-12-07T10:35:39;26.10;;;16.30;;
43801;SDS011;29429;51.074;13.764;2023-12-07T10:38:11;24.95;;;16.25;;
43801;SDS011;29429;51.074;13.764;2023-12-07T10:40:39;29.40;;;17.95;;
43801;SDS011;29429;51.074;13.764;2023-12-07T10:43:07;32.78;;;18.90;;
43801;SDS011;29429;51.074;13.764;2023-12-07T10:45:35;28.27;;;16.42;;
43801;SDS011;29429;51.074;13.764;2023-12-07T10:48:07;27.58;;;18.60;;
43801;SDS011;29429;51.074;13.764;2023-12-07T10:50:37;28.15;;;17.90;;
43801;SDS011;29429;51.074;13.764;2023-12-07T10:53:19;30.27;;;17.90;;
43801;SDS011;29429;51.074;13.764;2023-12-07T10:55:55;28.77;;;16.60;;
43801;SDS011;29429;51.074;13.764;2023-12-07T10:58:26;24.40;;;15.85;;
43801;SDS011;29429;51.074;13.764;2023-12-07T11:00:54;28.52;;;17.15;;
43801;SDS011;29429;51.074;13.764;2023-12-07T11:03:24;28.98;;;17.35;;
43801;SDS011;29429;51.074;13.764;2023-12-07T11:05:52;31.45;;;19.13;;
43801;SDS011;29429;51.074;13.764;2023-12-07T11:08:28;29.42;;;18.83;;
43801;SDS011;29429;51.074;13.764;2023-12-07T11:14:04;28.95;;;18.00;;
43801;SDS011;29429;51.074;13.764;2023-12-07T11:16:40;27.88;;;17.10;;
43801;SDS011;29429;51.074;13.764;2023-12-07T11:22:10;30.00;;;17.58;;
43801;SDS011;29429;51.074;13.764;2023-12-07T11:24:54;29.08;;;18.08;;
43801;SDS011;29429;51.074;13.764;2023-12-07T11:27:30;27.73;;;17.67;;
43801;SDS011;29429;51.074;13.764;2023-12-07T11:29:59;28.48;;;18.73;;
43801;SDS011;29429;51.074;13.764;2023-12-07T11:32:27;30.60;;;18.70;;
43801;SDS011;29429;51.074;13.764;2023-12-07T11:34:54;35.22;;;19.40;;
43801;SDS011;29429;51.074;13.764;2023-12-07T11:38:15;31.30;;;18.85;;
43801;SDS011;29429;51.074;13.764;2023-12-07T11:40:46;34.05;;;19.15;;
43801;SDS011;29429;51.074;13.764;2023-12-07T11:43:16;29.15;;;18.30;;
43801;SDS011;29429;51.074;13.764;2023-12-07T11:46:00;29.65;;;17.58;;
43801;SDS011;29429;51.074;13.764;2023-12-07T11:48:28;32.35;;;19.17;;
43801;SDS011;29429;51.074;13.764;2023-12-07T11:51:01;33.45;;;18.35;;
43801;SDS011;29429;51.074;13.764;2023-12-07T11:53:35;29.23;;;19.05;;
43801;SDS011;29429;51.074;13.764;2023-12-07T11:56:07;29.00;;;17.50;;
43801;SDS011;29429;51.074;13.764;2023-12-07T11:58:37;29.70;;;17.80;;
43801;SDS011;29429;51.074;13.764;2023-12-07T12:01:07;34.20;;;19.60;;
43801;SDS011;29429;51.074;13.764;2023-12-07T12:03:35;29.75;;;18.45;;
43801;SDS011;29429;51.074;13.764;2023-12-07T12:06:05;32.03;;;18.77;;
43801;SDS011;29429;51.074;13.764;2023-12-07T12:08:34;31.88;;;19.63;;
43801;SDS011;29429;51.074;13.764;2023-12-07T12:11:01;27.65;;;17.83;;
43801;SDS011;29429;51.074;13.764;2023-12-07T12:13:29;31.48;;;18.35;;
43801;SDS011;29429;51.074;13.764;2023-12-07T12:16:01;31.42;;;20.15;;
43801;SDS011;29429;51.074;13.764;2023-12-07T12:18:32;30.90;;;19.48;;
43801;SDS011;29429;51.074;13.764;2023-12-07T12:21:01;32.08;;;19.35;;
43801;SDS011;29429;51.074;13.764;2023-12-07T12:23:28;34.40;;;20.13;;
43801;SDS011;29429;51.074;13.764;2023-12-07T12:25:56;28.65;;;18.92;;
43801;SDS011;29429;51.074;13.764;2023-12-07T12:28:24;31.88;;;18.75;;
43801;SDS011;29429;51.074;13.764;2023-12-07T12:30:52;24.27;;;17.13;;
43801;SDS011;29429;51.074;13.764;2023-12-07T12:33:21;29.33;;;18.63;;
43801;SDS011;29429;51.074;13.764;2023-12-07T12:36:00;33.08;;;18.45;;
43801;SDS011;29429;51.074;13.764;2023-12-07T12:38:31;31.52;;;19.13;;
43801;SDS011;29429;51.074;13.764;2023-12-07T12:41:08;27.40;;;16.73;;
43801;SDS011;29429;51.074;13.764;2023-12-07T12:43:35;28.35;;;18.80;;
43801;SDS011;29429;51.074;13.764;2023-12-07T12:46:03;28.73;;;19.08;;
43801;SDS011;29429;51.074;13.764;2023-12-07T12:48:32;28.42;;;17.13;;
43801;SDS011;29429;51.074;13.764;2023-12-07T12:51:13;29.92;;;19.25;;
43801;SDS011;29429;51.074;13.764;2023-12-07T12:53:41;32.13;;;18.83;;
43801;SDS011;29429;51.074;13.764;2023-12-07T12:56:17;28.88;;;19.05;;
43801;SDS011;29429;51.074;13.764;2023-12-07T12:58:49;31.13;;;19.42;;
43801;SDS011;29429;51.074;13.764;2023-12-07T13:01:18;31.35;;;19.58;;
43801;SDS011;29429;51.074;13.764;2023-12-07T13:03:48;31.77;;;19.92;;
43801;SDS011;29429;51.074;13.764;2023-12-07T13:06:16;27.55;;;18.08;;
43801;SDS011;29429;51.074;13.764;2023-12-07T13:08:44;32.65;;;19.88;;
43801;SDS011;29429;51.074;13.764;2023-12-07T13:11:17;33.30;;;20.15;;
43801;SDS011;29429;51.074;13.764;2023-12-07T13:13:46;30.35;;;19.85;;
43801;SDS011;29429;51.074;13.764;2023-12-07T13:16:15;29.02;;;19.10;;
43801;SDS011;29429;51.074;13.764;2023-12-07T13:18:43;29.15;;;18.98;;
43801;SDS011;29429;51.074;13.764;2023-12-07T13:21:10;34.25;;;21.17;;
43801;SDS011;29429;51.074;13.764;2023-12-07T13:23:38;32.75;;;20.45;;
43801;SDS011;29429;51.074;13.764;2023-12-07T13:26:05;32.35;;;20.13;;
43801;SDS011;29429;51.074;13.764;2023-12-07T13:28:32;29.42;;;19.40;;
43801;SDS011;29429;51.074;13.764;2023-12-07T13:31:00;35.20;;;21.13;;
43801;SDS011;29429;51.074;13.764;2023-12-07T13:33:27;37.83;;;20.63;;
43801;SDS011;29429;51.074;13.764;2023-12-07T13:35:59;34.03;;;20.30;;
43801;SDS011;29429;51.074;13.764;2023-12-07T13:38:32;37.03;;;21.90;;
43801;SDS011;29429;51.074;13.764;2023-12-07T13:41:00;32.47;;;20.25;;
43801;SDS011;29429;51.074;13.764;2023-12-07T13:43:28;27.92;;;17.40;;
43801;SDS011;29429;51.074;13.764;2023-12-07T13:45:56;36.60;;;21.13;;
43801;SDS011;29429;51.074;13.764;2023-12-07T13:48:23;29.73;;;19.00;;
43801;SDS011;29429;51.074;13.764;2023-12-07T13:50:50;26.75;;;16.55;;
43801;SDS011;29429;51.074;13.764;2023-12-07T13:53:17;36.28;;;21.58;;
43801;SDS011;29429;51.074;13.764;2023-12-07T13:55:44;32.92;;;20.02;;
43801;SDS011;29429;51.074;13.764;2023-12-07T13:58:12;30.42;;;19.48;;
43801;SDS011;29429;51.074;13.764;2023-12-07T14:00:39;30.25;;;18.60;;
43801;SDS011;29429;51.074;13.764;2023-12-07T14:03:11;37.03;;;22.23;;
43801;SDS011;29429;51.074;13.764;2023-12-07T14:05:39;32.47;;;20.77;;
43801;SDS011;29429;51.074;13.764;2023-12-07T14:08:07;30.58;;;19.33;;
43801;SDS011;29429;51.074;13.764;2023-12-07T14:10:35;29.05;;;19.10;;
43801;SDS011;29429;51.074;13.764;2023-12-07T14:13:02;30.75;;;19.33;;
43801;SDS011;29429;51.074;13.764;2023-12-07T14:15:30;27.63;;;17.65;;
43801;SDS011;29429;51.074;13.764;2023-12-07T14:18:10;30.58;;;18.67;;
43801;SDS011;29429;51.074;13.764;2023-12-07T14:20:40;30.58;;;18.70;;
43801;SDS011;29429;51.074;13.764;2023-12-07T14:23:28;30.23;;;18.00;;
43801;SDS011;29429;51.074;13.764;2023-12-07T14:25:55;28.13;;;18.48;;